Time;durP1;ratioP1;P1;durP2;ratioP2;P2;SDS_P1;SDS_P2;PMS_P1;PMS_P2;Temp;Humidity;BMP_temperature;BMP_pressure;BME280_temperature;BME280_humidity;BME280_pressure;Samples;Min_cycle;Max_cycle;Signal;HPM_P1;HPM_P2
2022/09/09 00:00:25;;;;;;;0.30;0.30;;;14.60;99.90;;;;;;5114831;28;20051;-71
2022/09/09 00:02:57;;;;;;;2.08;0.47;;;15.00;99.90;;;;;;5114633;28;20020;-73
2022/09/09 00:05:28;;;;;;;0.52;0.30;;;15.60;99.90;;;;;;5114610;28;20042;-71
2022/09/09 00:07:58;;;;;;;0.70;0.70;;;16.00;99.90;;;;;;5114562;28;20031;-73
2022/09/09 00:10:31;;;;;;;0.17;0.17;;;16.00;99.90;;;;;;5114681;28;20093;-72
2022/09/09 00:13:18;;;;;;;0.32;0.20;;;16.00;99.90;;;;;;5114881;28;20024;-72
2022/09/09 00:15:52;;;;;;;0.30;0.30;;;15.90;99.90;;;;;;5114627;28;20099;-72
2022/09/09 00:18:47;;;;;;;2.72;0.60;;;15.80;99.90;;;;;;5114457;28;20046;-76
2022/09/09 00:21:15;;;;;;;0.63;0.30;;;15.70;99.90;;;;;;5113315;28;20042;-76
2022/09/09 00:24:07;;;;;;;0.20;0.20;;;15.60;99.90;;;;;;5114508;28;20477;-76
2022/09/09 00:26:42;;;;;;;0.20;0.20;;;15.50;99.90;;;;;;5114198;28;20054;-72
2022/09/09 00:29:08;;;;;;;2.65;0.47;;;15.50;99.90;;;;;;5096120;28;20036;-76
2022/09/09 00:31:34;;;;;;;0.17;0.10;;;15.50;99.90;;;;;;5114193;28;20016;-78
2022/09/09 00:34:12;;;;;;;5.22;0.75;;;15.50;99.90;;;;;;5113998;28;20487;-75
2022/09/09 00:36:38;;;;;;;0.30;0.30;;;15.50;99.90;;;;;;5114388;28;20098;-75
2022/09/09 00:39:05;;;;;;;0.20;0.20;;;15.50;99.90;;;;;;5114112;28;20023;-76
2022/09/09 00:42:23;;;;;;;0.77;0.20;;;15.40;99.90;;;;;;5113811;28;20060;-73
2022/09/09 00:45:02;;;;;;;1.98;0.35;;;15.40;99.90;;;;;;5011787;28;20034;-75
2022/09/09 00:47:35;;;;;;;2.67;0.95;;;15.50;99.90;;;;;;5011895;28;20544;-75
2022/09/09 00:50:15;;;;;;;3.15;0.75;;;15.50;99.90;;;;;;5083636;28;20081;-73
2022/09/09 00:53:12;;;;;;;1.38;0.55;;;15.50;99.90;;;;;;5114091;28;20012;-72
2022/09/09 00:56:14;;;;;;;0.13;0.13;;;15.50;99.90;;;;;;5113960;28;20024;-72
2022/09/09 00:58:43;;;;;;;0.50;0.20;;;15.40;99.90;;;;;;5113790;28;20383;-73
2022/09/09 01:01:12;;;;;;;0.50;0.50;;;15.20;99.90;;;;;;5114882;28;20028;-74
2022/09/09 01:03:49;;;;;;;1.48;0.17;;;15.00;99.90;;;;;;5098071;28;20043;-71
2022/09/09 01:06:22;;;;;;;0.20;0.20;;;14.90;99.90;;;;;;5115899;28;20028;-73
2022/09/09 01:09:11;;;;;;;0.30;0.30;;;14.80;99.90;;;;;;5116934;28;20031;-70
2022/09/09 01:11:50;;;;;;;1.40;0.50;;;14.70;99.90;;;;;;5116304;28;20032;-76
2022/09/09 01:14:36;;;;;;;1.08;0.52;;;14.60;99.90;;;;;;5113990;28;20094;-71
2022/09/09 01:17:11;;;;;;;1.20;0.93;;;14.60;99.90;;;;;;5114051;28;20023;-73
2022/09/09 01:20:12;;;;;;;0.20;0.20;;;14.50;99.90;;;;;;5113910;28;20015;-74
2022/09/09 01:22:38;;;;;;;0.63;0.63;;;14.50;99.90;;;;;;5113847;28;20480;-72
2022/09/09 01:25:46;;;;;;;0.45;0.45;;;14.50;99.90;;;;;;5113861;28;20024;-77
2022/09/09 01:28:18;;;;;;;0.85;0.75;;;14.40;99.90;;;;;;5079568;28;20088;-73
2022/09/09 01:30:44;;;;;;;2.72;0.80;;;14.30;99.90;;;;;;5113789;28;20019;-72
2022/09/09 01:33:17;;;;;;;0.13;0.13;;;14.30;99.90;;;;;;5095575;28;20115;-71
2022/09/09 01:36:00;;;;;;;0.93;0.93;;;14.30;99.90;;;;;;5095390;28;20038;-72
2022/09/09 01:38:27;;;;;;;0.15;0.15;;;14.30;99.90;;;;;;5113554;28;20380;-74
2022/09/09 01:40:53;;;;;;;0.70;0.70;;;14.30;99.90;;;;;;5114209;28;20051;-74
2022/09/09 01:43:23;;;;;;;6.22;0.60;;;14.30;99.90;;;;;;5113994;28;20414;-73
2022/09/09 01:45:53;;;;;;;0.95;0.30;;;14.30;99.90;;;;;;5115906;28;20499;-74
2022/09/09 01:48:22;;;;;;;0.63;0.52;;;14.20;99.90;;;;;;5117662;28;20038;-73
2022/09/09 01:50:47;;;;;;;0.50;0.50;;;14.20;99.90;;;;;;5117616;28;20503;-72
2022/09/09 01:53:16;;;;;;;0.52;0.40;;;14.20;99.90;;;;;;5099401;28;20031;-71
2022/09/09 01:55:56;;;;;;;4.60;0.57;;;14.30;99.90;;;;;;5117382;28;20023;-71
2022/09/09 01:58:47;;;;;;;0.25;0.20;;;14.30;99.90;;;;;;5117356;28;20028;-72
2022/09/09 02:01:28;;;;;;;0.40;0.40;;;14.20;99.90;;;;;;5117130;28;20379;-72
2022/09/09 02:03:57;;;;;;;0.40;0.40;;;14.20;99.90;;;;;;5098809;28;20496;-75
2022/09/09 02:06:33;;;;;;;2.25;0.68;;;14.20;99.90;;;;;;5117306;28;20027;-73
2022/09/09 02:09:04;;;;;;;2.38;0.40;;;14.20;99.90;;;;;;5098883;28;20038;-72
2022/09/09 02:11:30;;;;;;;1.20;0.98;;;14.10;99.90;;;;;;5117267;28;20020;-72
2022/09/09 02:14:13;;;;;;;0.88;0.57;;;14.10;99.90;;;;;;5116904;28;20073;-72
2022/09/09 02:16:44;;;;;;;0.45;0.30;;;14.00;99.90;;;;;;5116954;28;20358;-73
2022/09/09 02:19:23;;;;;;;0.45;0.45;;;13.90;99.90;;;;;;5116967;28;20117;-72
2022/09/09 02:21:50;;;;;;;0.43;0.40;;;13.90;99.90;;;;;;5116877;28;20106;-73
2022/09/09 02:24:16;;;;;;;0.32;0.32;;;13.90;99.90;;;;;;5117067;28;20480;-74
2022/09/09 02:26:44;;;;;;;1.08;1.00;;;13.80;99.90;;;;;;5098676;28;20023;-72
2022/09/09 02:29:27;;;;;;;0.20;0.20;;;13.80;99.90;;;;;;5116702;28;20104;-72
2022/09/09 02:31:57;;;;;;;0.28;0.28;;;13.70;99.90;;;;;;5116663;28;20102;-71
2022/09/09 02:34:24;;;;;;;0.40;0.40;;;13.80;99.90;;;;;;5116441;28;20024;-72
2022/09/09 02:36:53;;;;;;;0.28;0.28;;;13.80;99.90;;;;;;5098310;28;20023;-72
2022/09/09 02:39:19;;;;;;;0.57;0.57;;;13.80;99.90;;;;;;5116526;28;20031;-71
2022/09/09 02:41:45;;;;;;;0.20;0.20;;;13.80;99.90;;;;;;5116604;28;20028;-73
2022/09/09 02:44:12;;;;;;;1.02;0.20;;;13.80;99.90;;;;;;5116216;28;20028;-72
2022/09/09 02:47:12;;;;;;;0.25;0.25;;;13.80;99.90;;;;;;5116422;28;20027;-70
2022/09/09 02:49:55;;;;;;;0.75;0.70;;;13.80;99.90;;;;;;5116348;28;20031;-71
2022/09/09 02:52:32;;;;;;;0.63;0.40;;;13.80;99.90;;;;;;5116131;28;20101;-72
2022/09/09 02:55:10;;;;;;;0.20;0.20;;;13.80;99.90;;;;;;5116114;28;20030;-75
2022/09/09 02:57:37;;;;;;;0.10;0.10;;;13.90;99.90;;;;;;5097923;28;20028;-72
2022/09/09 03:00:04;;;;;;;2.00;0.10;;;13.90;99.90;;;;;;5116252;28;20498;-72
2022/09/09 03:02:30;;;;;;;0.55;0.55;;;13.90;99.90;;;;;;5116175;28;20038;-72
2022/09/09 03:04:56;;;;;;;0.20;0.20;;;14.00;99.90;;;;;;5116006;28;20092;-72
2022/09/09 03:07:22;;;;;;;0.22;0.22;;;14.10;99.90;;;;;;5115825;28;20031;-72
2022/09/09 03:09:48;;;;;;;0.40;0.40;;;14.30;99.90;;;;;;5115853;28;20032;-71
2022/09/09 03:12:14;;;;;;;0.85;0.52;;;14.50;99.90;;;;;;5115781;28;20476;-71
2022/09/09 03:14:40;;;;;;;0.43;0.43;;;14.70;99.90;;;;;;5115690;28;20035;-71
2022/09/09 03:17:06;;;;;;;3.00;0.50;;;14.80;99.90;;;;;;5115796;28;20015;-71
2022/09/09 03:19:31;;;;;;;6.03;0.32;;;14.80;99.90;;;;;;5115729;28;20046;-72
2022/09/09 03:22:00;;;;;;;5.57;0.68;;;14.80;99.90;;;;;;5097464;28;20480;-72
2022/09/09 03:24:26;;;;;;;1.07;0.33;;;14.80;99.90;;;;;;5115611;28;20023;-72
2022/09/09 03:26:55;;;;;;;2.72;0.32;;;14.70;99.90;;;;;;5115764;28;20042;-72
2022/09/09 03:29:21;;;;;;;3.80;1.40;;;14.60;99.90;;;;;;5115386;28;20054;-72
2022/09/09 03:31:47;;;;;;;0.50;0.50;;;14.60;99.90;;;;;;5097196;28;20169;-71
2022/09/09 03:34:13;;;;;;;0.82;0.80;;;14.70;99.90;;;;;;5115791;28;20523;-72
2022/09/09 03:36:40;;;;;;;0.32;0.32;;;14.50;99.90;;;;;;5115221;28;20016;-72
2022/09/09 03:39:06;;;;;;;0.20;0.20;;;14.50;99.90;;;;;;5115405;28;20499;-72
2022/09/09 03:41:32;;;;;;;0.40;0.20;;;14.50;99.90;;;;;;5115424;28;20024;-74
2022/09/09 03:43:58;;;;;;;0.20;0.20;;;14.40;99.90;;;;;;5097104;28;20114;-72
2022/09/09 03:46:25;;;;;;;0.70;0.70;;;14.40;99.90;;;;;;5115073;28;20051;-72
2022/09/09 03:48:54;;;;;;;1.00;0.70;;;14.40;99.90;;;;;;5115034;28;20027;-73
2022/09/09 03:51:21;;;;;;;0.37;0.37;;;14.30;99.90;;;;;;5115196;28;20047;-72
2022/09/09 03:53:47;;;;;;;0.17;0.17;;;14.30;99.90;;;;;;5096565;28;20274;-72
2022/09/09 03:56:13;;;;;;;0.57;0.22;;;14.30;99.90;;;;;;5115276;28;20368;-72
2022/09/09 03:58:39;;;;;;;1.40;0.50;;;14.20;99.90;;;;;;5115030;28;20034;-72
2022/09/09 04:01:13;;;;;;;1.95;0.25;;;14.20;99.90;;;;;;5114847;28;20055;-72
2022/09/09 04:03:39;;;;;;;0.30;0.30;;;14.00;99.90;;;;;;5115005;28;20079;-72
2022/09/09 04:06:07;;;;;;;0.20;0.20;;;13.90;99.90;;;;;;5096379;28;20027;-72
2022/09/09 04:08:33;;;;;;;0.10;0.10;;;13.90;99.90;;;;;;5114457;28;20031;-73
2022/09/09 04:11:05;;;;;;;0.20;0.20;;;13.90;99.90;;;;;;5114501;28;20020;-72
2022/09/09 04:13:30;;;;;;;1.65;1.17;;;13.90;99.90;;;;;;5114660;28;20028;-71
2022/09/09 04:15:58;;;;;;;0.20;0.20;;;13.80;99.90;;;;;;5114592;28;20072;-72
2022/09/09 04:18:25;;;;;;;0.10;0.10;;;13.80;99.90;;;;;;5114581;28;20035;-72
2022/09/09 04:20:52;;;;;;;0.20;0.20;;;;;;;;;;5114524;28;20015;-72
2022/09/09 04:23:20;;;;;;;0.10;0.10;;;13.70;99.90;;;;;;5114578;28;20030;-71
2022/09/09 04:25:50;;;;;;;0.50;0.50;;;13.80;99.90;;;;;;5114582;28;20103;-72
2022/09/09 04:28:17;;;;;;;0.60;0.30;;;13.70;99.90;;;;;;5114325;28;20035;-72
2022/09/09 04:30:44;;;;;;;0.25;0.25;;;13.70;99.90;;;;;;5114310;28;20050;-73
2022/09/09 04:33:10;;;;;;;0.32;0.30;;;13.70;99.90;;;;;;5114422;28;20031;-72
2022/09/09 04:35:36;;;;;;;0.30;0.30;;;13.70;99.90;;;;;;5096051;28;20030;-72
2022/09/09 04:38:02;;;;;;;1.92;0.40;;;13.70;99.90;;;;;;5114432;28;20476;-72
2022/09/09 04:40:29;;;;;;;0.40;0.40;;;13.70;99.90;;;;;;5114275;28;20038;-72
2022/09/09 04:42:59;;;;;;;1.25;0.68;;;13.70;99.90;;;;;;5114199;28;20483;-71
2022/09/09 04:45:26;;;;;;;1.30;0.35;;;13.60;99.90;;;;;;5114134;28;20024;-74
2022/09/09 04:47:52;;;;;;;0.20;0.20;;;13.70;99.90;;;;;;5113900;28;20059;-72
2022/09/09 04:50:18;;;;;;;0.57;0.43;;;13.70;99.90;;;;;;5114087;28;20019;-74
2022/09/09 04:52:44;;;;;;;0.95;0.50;;;13.60;99.90;;;;;;5114130;28;20476;-72
2022/09/09 04:55:11;;;;;;;1.52;0.95;;;13.60;99.90;;;;;;5114407;28;20024;-73
2022/09/09 04:57:37;;;;;;;0.10;0.10;;;;;;;;;;5114130;28;20597;-71
2022/09/09 05:00:03;;;;;;;0.60;0.60;;;13.50;99.90;;;;;;5114036;28;20043;-72
2022/09/09 05:02:30;;;;;;;0.30;0.30;;;13.50;99.90;;;;;;5113897;28;20031;-73
2022/09/09 05:04:56;;;;;;;3.60;0.30;;;13.30;99.90;;;;;;5113892;28;20043;-73
2022/09/09 05:07:22;;;;;;;0.75;0.75;;;;;;;;;;5095479;28;20030;-72
2022/09/09 05:09:49;;;;;;;0.52;0.52;;;13.40;99.90;;;;;;5095984;28;20498;-72
2022/09/09 05:12:16;;;;;;;1.35;0.88;;;13.40;99.90;;;;;;5113890;28;20405;-72
2022/09/09 05:14:42;;;;;;;0.40;0.40;;;13.40;99.90;;;;;;5113768;28;20026;-74
2022/09/09 05:17:08;;;;;;;0.28;0.28;;;13.50;99.90;;;;;;5113967;28;20125;-75
2022/09/09 05:19:34;;;;;;;0.20;0.20;;;13.60;99.90;;;;;;5115322;28;20376;-77
2022/09/09 05:22:00;;;;;;;0.65;0.65;;;13.70;99.90;;;;;;5119150;28;20020;-78
2022/09/09 05:24:26;;;;;;;0.30;0.30;;;13.90;99.90;;;;;;5118719;28;20023;-76
2022/09/09 05:26:52;;;;;;;0.55;0.30;;;;;;;;;;5118209;28;20070;-77
2022/09/09 05:29:21;;;;;;;0.25;0.25;;;14.30;99.90;;;;;;5100418;28;20097;-79
2022/09/09 05:31:46;;;;;;;0.95;0.47;;;14.50;99.90;;;;;;5118240;28;20416;-75
2022/09/09 05:34:12;;;;;;;3.20;0.35;;;14.60;99.90;;;;;;5101250;28;20030;-77
2022/09/09 05:36:39;;;;;;;0.35;0.35;;;14.80;99.90;;;;;;5126265;28;20027;-75
2022/09/09 05:39:04;;;;;;;2.35;0.80;;;15.10;99.90;;;;;;5128368;28;20357;-77
2022/09/09 05:41:31;;;;;;;0.40;0.40;;;15.20;99.90;;;;;;5127511;28;20027;-76
2022/09/09 05:43:58;;;;;;;0.50;0.50;;;15.30;99.90;;;;;;5127013;28;20312;-76
2022/09/09 05:46:25;;;;;;;0.43;0.43;;;15.30;99.90;;;;;;5126949;28;20020;-77
2022/09/09 05:48:51;;;;;;;0.65;0.65;;;15.30;99.90;;;;;;5125858;28;20053;-78
2022/09/09 05:51:24;;;;;;;0.63;0.63;;;15.10;99.90;;;;;;5107124;28;20342;-77
2022/09/09 05:53:51;;;;;;;0.20;0.20;;;15.20;99.90;;;;;;5106886;28;20047;-77
2022/09/09 05:56:21;;;;;;;0.88;0.57;;;15.10;99.90;;;;;;5100875;28;20395;-74
2022/09/09 05:58:47;;;;;;;0.52;0.52;;;15.20;99.90;;;;;;5117396;28;20023;-78
2022/09/09 06:01:18;;;;;;;2.28;0.30;;;15.10;99.90;;;;;;5127713;28;20027;-71
2022/09/09 06:03:45;;;;;;;0.45;0.20;;;15.10;99.90;;;;;;5131652;28;20051;-75
2022/09/09 06:06:13;;;;;;;3.00;0.82;;;15.20;99.90;;;;;;5112595;28;20185;-72
2022/09/09 06:08:43;;;;;;;1.10;0.68;;;15.30;99.90;;;;;;5126238;28;20095;-71
2022/09/09 06:11:17;;;;;;;0.10;0.10;;;15.40;99.90;;;;;;5119745;28;20088;-73
2022/09/09 06:13:43;;;;;;;0.40;0.25;;;15.50;99.90;;;;;;5120761;28;20035;-74
2022/09/09 06:16:14;;;;;;;0.20;0.20;;;15.60;99.90;;;;;;5125508;28;20083;-75
2022/09/09 06:18:40;;;;;;;1.02;0.50;;;15.80;99.90;;;;;;5127041;28;20020;-73
2022/09/09 06:21:11;;;;;;;0.30;0.30;;;16.00;99.90;;;;;;5120532;28;20016;-72
2022/09/09 06:23:40;;;;;;;0.40;0.40;;;16.10;99.90;;;;;;5116367;28;20023;-77
2022/09/09 06:26:17;;;;;;;2.50;0.50;;;16.20;99.90;;;;;;5120976;28;20015;-78
2022/09/09 06:28:45;;;;;;;0.47;0.47;;;16.20;99.90;;;;;;5112545;28;20040;-78
2022/09/09 06:31:12;;;;;;;0.60;0.60;;;16.20;99.90;;;;;;5129837;28;20049;-75
2022/09/09 06:33:40;;;;;;;0.68;0.68;;;16.20;99.90;;;;;;5109747;28;20374;-73
2022/09/09 06:36:11;;;;;;;0.35;0.35;;;16.30;99.90;;;;;;5125373;28;20024;-73
2022/09/09 06:38:37;;;;;;;0.32;0.28;;;16.30;99.90;;;;;;5125467;28;20028;-74
2022/09/09 06:41:05;;;;;;;0.40;0.35;;;16.30;99.90;;;;;;5126305;28;20050;-74
2022/09/09 06:43:31;;;;;;;0.55;0.55;;;16.40;99.90;;;;;;5127338;28;20020;-73
2022/09/09 06:46:03;;;;;;;0.20;0.20;;;16.40;99.90;;;;;;5122857;28;20053;-74
2022/09/09 06:48:29;;;;;;;1.08;0.70;;;16.40;99.90;;;;;;5119949;28;20506;-73
2022/09/09 06:51:13;;;;;;;1.02;0.40;;;16.40;99.90;;;;;;5117856;28;20023;-73
2022/09/09 06:53:41;;;;;;;0.43;0.43;;;16.30;99.90;;;;;;5100644;28;20157;-73
2022/09/09 06:56:30;;;;;;;4.80;0.57;;;16.40;99.90;;;;;;5118796;28;20042;-77
2022/09/09 06:58:58;;;;;;;0.20;0.20;;;16.40;99.90;;;;;;5101137;28;20111;-73
2022/09/09 07:01:27;;;;;;;1.33;0.30;;;16.50;99.90;;;;;;5103189;28;20028;-74
2022/09/09 07:03:54;;;;;;;0.10;0.10;;;16.60;99.90;;;;;;5122204;28;20529;-80
2022/09/09 07:06:28;;;;;;;0.30;0.30;;;16.70;99.90;;;;;;5122931;28;20258;-76
2022/09/09 07:08:59;;;;;;;0.70;0.32;;;16.70;99.90;;;;;;5117135;28;20032;-76
2022/09/09 07:11:28;;;;;;;0.52;0.45;;;16.70;99.90;;;;;;5119315;28;20023;-78
2022/09/09 07:13:54;;;;;;;2.45;0.30;;;16.80;99.90;;;;;;5118183;28;20015;-73
2022/09/09 07:16:25;;;;;;;3.72;0.30;;;17.10;99.90;;;;;;5116933;28;20028;-76
2022/09/09 07:18:57;;;;;;;0.38;0.38;;;17.40;99.90;;;;;;5117180;28;20291;-74
2022/09/09 07:21:26;;;;;;;0.13;0.13;;;17.60;99.90;;;;;;5101199;28;20035;-76
2022/09/09 07:23:52;;;;;;;0.20;0.17;;;;;;;;;;5098518;28;20098;-76
2022/09/09 07:26:21;;;;;;;0.40;0.40;;;17.50;99.90;;;;;;5115616;28;20019;-71
2022/09/09 07:28:47;;;;;;;0.50;0.22;;;17.80;99.90;;;;;;5116389;28;20115;-75
2022/09/09 07:31:20;;;;;;;0.10;0.10;;;17.40;99.90;;;;;;5100758;28;20068;-71
2022/09/09 07:33:47;;;;;;;0.25;0.25;;;17.60;99.90;;;;;;5115299;28;20426;-72
2022/09/09 07:36:14;;;;;;;1.30;0.50;;;17.50;99.90;;;;;;5115508;28;20016;-72
2022/09/09 07:38:45;;;;;;;1.90;0.57;;;17.50;99.90;;;;;;5115391;28;20457;-72
2022/09/09 07:41:13;;;;;;;1.27;0.10;;;17.30;99.90;;;;;;5115246;28;20027;-75
2022/09/09 07:43:44;;;;;;;0.80;0.57;;;17.20;99.90;;;;;;5114634;28;20027;-72
2022/09/09 07:46:11;;;;;;;3.13;0.40;;;17.10;99.90;;;;;;5115114;28;20028;-73
2022/09/09 07:48:38;;;;;;;0.10;0.10;;;17.10;99.90;;;;;;5115157;28;20484;-75
2022/09/09 07:51:05;;;;;;;1.95;0.60;;;17.10;99.90;;;;;;5115286;28;20015;-72
2022/09/09 07:53:31;;;;;;;0.65;0.52;;;17.00;99.90;;;;;;5114928;28;20025;-73
2022/09/09 07:56:23;;;;;;;0.17;0.17;;;16.90;99.90;;;;;;5114941;28;20031;-75
2022/09/09 07:58:50;;;;;;;1.02;0.47;;;16.90;99.90;;;;;;5114096;28;20106;-75
2022/09/09 08:01:19;;;;;;;0.43;0.38;;;16.90;99.90;;;;;;5115022;28;20034;-72
2022/09/09 08:03:46;;;;;;;0.20;0.20;;;16.80;99.90;;;;;;5114790;28;20039;-72
2022/09/09 08:06:13;;;;;;;0.22;0.22;;;16.70;99.90;;;;;;5114780;28;20032;-73
2022/09/09 08:08:41;;;;;;;0.25;0.25;;;16.80;99.90;;;;;;5114701;28;20027;-75
2022/09/09 08:11:11;;;;;;;0.10;0.10;;;;;;;;;;5115118;28;20111;-72
2022/09/09 08:13:37;;;;;;;1.48;1.20;;;17.00;99.90;;;;;;5114683;28;20098;-72
2022/09/09 08:16:05;;;;;;;0.80;0.50;;;17.20;99.90;;;;;;5096385;28;20023;-72
2022/09/09 08:18:31;;;;;;;1.00;0.17;;;17.20;99.90;;;;;;5115052;28;20045;-72
2022/09/09 08:20:57;;;;;;;0.93;0.93;;;17.30;99.90;;;;;;5114654;28;20024;-72
2022/09/09 08:23:22;;;;;;;0.20;0.17;;;17.50;99.90;;;;;;5114569;28;20020;-73
2022/09/09 08:25:49;;;;;;;3.30;0.20;;;17.90;99.90;;;;;;5114501;28;20574;-76
2022/09/09 08:28:15;;;;;;;0.20;0.20;;;18.40;99.90;;;;;;5096085;28;20031;-76
2022/09/09 08:30:42;;;;;;;0.30;0.13;;;18.60;99.90;;;;;;5114399;28;20486;-73
2022/09/09 08:33:09;;;;;;;0.50;0.50;;;19.30;99.90;;;;;;5114369;28;20062;-72
2022/09/09 08:35:34;;;;;;;1.45;0.65;;;20.20;99.90;;;;;;5113959;28;20426;-78
2022/09/09 08:38:01;;;;;;;2.05;0.65;;;21.00;99.90;;;;;;5114239;28;20028;-74
2022/09/09 08:40:33;;;;;;;0.10;0.10;;;21.50;99.90;;;;;;5095739;28;20020;-76
2022/09/09 08:43:02;;;;;;;0.25;0.25;;;22.50;99.90;;;;;;5113545;28;20449;-76
2022/09/09 08:45:45;;;;;;;0.30;0.30;;;22.80;99.90;;;;;;5095471;28;20039;-78
2022/09/09 08:48:21;;;;;;;2.95;1.02;;;21.70;99.90;;;;;;5113792;28;20040;-73
2022/09/09 08:50:50;;;;;;;0.10;0.10;;;20.70;99.90;;;;;;5114035;28;20024;-75
2022/09/09 08:53:21;;;;;;;;;;;20.10;99.90;;;;;;5114272;28;20102;-78
2022/09/09 08:55:58;;;;;;;0.20;0.20;;;19.90;99.90;;;;;;5095665;28;20425;-78
2022/09/09 08:58:29;;;;;;;0.82;0.30;;;20.10;99.90;;;;;;5095760;28;20353;-74
2022/09/09 09:01:24;;;;;;;1.05;0.60;;;20.10;99.90;;;;;;5114217;28;20516;-76
2022/09/09 09:04:14;;;;;;;0.10;0.10;;;20.20;99.90;;;;;;5076919;28;20466;-73
2022/09/09 09:07:00;;;;;;;0.20;0.20;;;20.20;99.90;;;;;;5113986;28;20016;-73
2022/09/09 09:09:41;;;;;;;0.20;0.20;;;20.00;99.90;;;;;;5113849;28;20480;-75
2022/09/09 09:12:23;;;;;;;0.45;0.45;;;20.20;99.90;;;;;;5113971;28;20460;-73
2022/09/09 09:14:49;;;;;;;0.70;0.70;;;20.40;99.90;;;;;;5114004;28;20024;-73
2022/09/09 09:17:19;;;;;;;0.70;0.40;;;20.60;99.90;;;;;;5113687;28;20053;-76
2022/09/09 09:19:46;;;;;;;0.25;0.10;;;20.30;99.90;;;;;;5095706;28;20019;-73
2022/09/09 09:22:26;;;;;;;0.08;0.08;;;20.40;99.90;;;;;;5114095;28;20055;-74
2022/09/09 09:24:53;;;;;;;0.30;0.30;;;20.50;99.90;;;;;;5113876;28;20514;-76
2022/09/09 09:27:32;;;;;;;0.30;0.30;;;20.60;99.90;;;;;;5114551;28;20047;-75
2022/09/09 09:30:14;;;;;;;1.45;0.93;;;20.60;99.90;;;;;;5096160;28;20047;-74
2022/09/09 09:32:43;;;;;;;0.20;0.20;;;20.50;99.90;;;;;;5114118;28;20020;-74
2022/09/09 09:35:12;;;;;;;0.00;0.00;;;20.50;99.90;;;;;;5113926;28;20389;-74
2022/09/09 09:37:41;;;;;;;0.30;0.30;;;20.40;99.90;;;;;;5113288;28;20031;-74
2022/09/09 09:40:12;;;;;;;2.63;0.30;;;20.30;99.90;;;;;;5113653;28;20103;-74
2022/09/09 09:42:48;;;;;;;2.05;0.45;;;20.50;99.90;;;;;;5095019;28;20024;-75
2022/09/09 09:45:28;;;;;;;0.00;0.00;;;20.80;99.90;;;;;;5113555;28;20017;-74
2022/09/09 09:48:05;;;;;;;1.45;0.20;;;20.80;99.30;;;;;;5113614;28;20034;-75
2022/09/09 09:50:32;;;;;;;0.20;0.20;;;20.10;97.40;;;;;;5113894;28;20387;-74
2022/09/09 09:53:04;;;;;;;1.10;0.30;;;20.50;97.90;;;;;;5113581;28;20072;-75
2022/09/09 09:55:34;;;;;;;0.20;0.20;;;20.60;97.80;;;;;;5113380;28;20055;-75
2022/09/09 09:58:15;;;;;;;1.00;0.65;;;20.80;94.30;;;;;;5113553;28;20020;-76
2022/09/09 10:00:49;;;;;;;1.75;1.08;;;20.70;94.00;;;;;;5113749;28;20120;-75
2022/09/09 10:03:26;;;;;;;0.20;0.20;;;20.40;93.30;;;;;;5113700;28;20045;-75
2022/09/09 10:05:53;;;;;;;0.35;0.25;;;20.40;91.90;;;;;;5114295;28;20026;-75
2022/09/09 10:08:20;;;;;;;0.10;0.10;;;20.70;92.90;;;;;;5116961;28;20387;-72
2022/09/09 10:11:07;;;;;;;0.10;0.10;;;20.60;92.70;;;;;;5117357;28;20389;-73
2022/09/09 10:13:33;;;;;;;0.32;0.32;;;20.90;92.50;;;;;;5116549;28;20023;-75
2022/09/09 10:16:14;;;;;;;0.38;0.20;;;21.40;91.90;;;;;;5098185;28;20329;-74
2022/09/09 10:19:04;;;;;;;0.25;0.25;;;21.40;90.00;;;;;;5098137;28;20047;-74
2022/09/09 10:21:45;;;;;;;0.35;0.32;;;21.60;85.00;;;;;;5116528;28;20096;-72
2022/09/09 10:24:20;;;;;;;0.03;0.03;;;21.50;85.70;;;;;;5116441;28;20035;-73
2022/09/09 10:27:12;;;;;;;0.20;0.20;;;21.60;85.20;;;;;;5116398;28;20019;-75
2022/09/09 10:29:55;;;;;;;3.65;0.17;;;21.20;86.50;;;;;;5116389;28;20031;-72
2022/09/09 10:32:39;;;;;;;0.05;0.05;;;21.00;85.50;;;;;;5116463;28;20048;-73
2022/09/09 10:35:13;;;;;;;1.38;0.47;;;21.00;86.70;;;;;;5117040;28;20153;-73
2022/09/09 10:38:10;;;;;;;1.65;0.30;;;20.80;82.70;;;;;;5098769;28;20035;-76
2022/09/09 10:40:56;;;;;;;0.13;0.13;;;20.70;82.10;;;;;;5116732;28;20020;-76
2022/09/09 10:43:34;;;;;;;0.45;0.13;;;20.80;83.00;;;;;;5098125;28;20038;-73
2022/09/09 10:46:12;;;;;;;0.80;0.65;;;21.10;81.50;;;;;;5116063;28;20106;-76
2022/09/09 10:49:06;;;;;;;2.75;0.20;;;21.50;78.30;;;;;;5117415;28;20028;-73
2022/09/09 10:51:50;;;;;;;0.08;0.08;;;21.70;78.00;;;;;;5078951;28;20038;-76
2022/09/09 10:54:34;;;;;;;0.03;0.03;;;21.80;76.20;;;;;;5116880;28;20020;-78
2022/09/09 10:57:22;;;;;;;0.10;0.10;;;22.00;76.50;;;;;;5116275;28;20020;-76
2022/09/09 10:59:52;;;;;;;0.00;0.00;;;21.60;78.40;;;;;;5116722;28;20051;-78
2022/09/09 11:02:29;;;;;;;0.05;0.05;;;21.40;82.90;;;;;;5119135;28;20016;-74
2022/09/09 11:05:10;;;;;;;2.15;0.20;;;21.50;88.50;;;;;;5118805;28;20058;-75
2022/09/09 11:07:50;;;;;;;0.57;0.20;;;21.40;84.70;;;;;;5115710;28;20016;-73
2022/09/09 11:10:39;;;;;;;0.30;0.30;;;21.20;84.50;;;;;;5116092;28;20030;-72
2022/09/09 11:13:23;;;;;;;0.10;0.10;;;21.20;85.20;;;;;;5117919;28;20020;-73
2022/09/09 11:15:56;;;;;;;0.63;0.43;;;20.80;80.70;;;;;;5115788;28;20015;-72
2022/09/09 11:18:23;;;;;;;0.17;0.17;;;20.70;84.30;;;;;;5114488;28;20024;-76
2022/09/09 11:20:56;;;;;;;2.15;0.30;;;21.00;85.80;;;;;;5115478;28;20027;-76
2022/09/09 11:23:38;;;;;;;0.10;0.10;;;21.00;86.70;;;;;;5115314;28;20024;-75
2022/09/09 11:26:07;;;;;;;0.43;0.20;;;21.00;85.50;;;;;;5115152;28;20019;-73
2022/09/09 11:28:51;;;;;;;0.28;0.20;;;21.10;84.80;;;;;;5115044;28;20430;-73
2022/09/09 11:31:44;;;;;;;0.20;0.20;;;21.50;84.70;;;;;;5115100;28;20073;-73
2022/09/09 11:34:26;;;;;;;1.35;0.13;;;21.70;82.70;;;;;;5115179;28;20530;-73
2022/09/09 11:37:00;;;;;;;0.20;0.20;;;21.90;84.60;;;;;;5114988;28;20019;-74
2022/09/09 11:40:14;;;;;;;0.20;0.20;;;21.70;85.00;;;;;;5096842;28;20383;-75
2022/09/09 11:42:40;;;;;;;0.63;0.20;;;21.40;87.90;;;;;;5052601;28;20028;-74
2022/09/09 11:45:28;;;;;;;0.10;0.10;;;21.30;85.60;;;;;;5115036;28;20096;-74
2022/09/09 11:48:02;;;;;;;0.00;0.00;;;21.30;86.10;;;;;;5114900;28;20027;-74
2022/09/09 11:50:36;;;;;;;0.17;0.10;;;21.00;82.70;;;;;;5114825;28;20035;-74
2022/09/09 11:53:20;;;;;;;0.25;0.20;;;21.30;79.80;;;;;;5115014;28;20041;-74
2022/09/09 11:55:46;;;;;;;0.22;0.10;;;21.90;72.60;;;;;;5114804;28;20027;-73
2022/09/09 11:58:12;;;;;;;2.30;0.38;;;22.40;73.00;;;;;;5114565;28;20028;-74
2022/09/09 12:00:38;;;;;;;1.35;0.10;;;21.90;72.50;;;;;;5114600;28;20020;-73
2022/09/09 12:03:32;;;;;;;0.20;0.20;;;21.90;73.00;;;;;;5095874;28;20050;-77
2022/09/09 12:05:59;;;;;;;0.38;0.30;;;22.10;74.80;;;;;;5096003;28;20491;-71
2022/09/09 12:08:28;;;;;;;0.30;0.10;;;22.80;71.40;;;;;;5096139;28;20130;-76
2022/09/09 12:10:59;;;;;;;0.30;0.30;;;24.90;71.20;;;;;;5114498;28;20109;-75
2022/09/09 12:13:26;;;;;;;1.00;0.20;;;23.70;69.90;;;;;;5096205;28;20120;-75
2022/09/09 12:15:55;;;;;;;1.08;0.25;;;23.70;69.00;;;;;;5096128;28;20026;-75
2022/09/09 12:18:39;;;;;;;0.10;0.10;;;24.00;70.10;;;;;;5095942;28;20016;-74
2022/09/09 12:21:29;;;;;;;0.20;0.20;;;23.60;69.70;;;;;;5114095;28;20579;-75
2022/09/09 12:24:02;;;;;;;0.55;0.40;;;23.20;71.60;;;;;;5113986;28;20444;-74
2022/09/09 12:26:55;;;;;;;0.20;0.05;;;22.30;70.60;;;;;;5114217;28;20012;-74
2022/09/09 12:29:23;;;;;;;0.32;0.32;;;21.90;70.80;;;;;;5114391;28;20034;-74
2022/09/09 12:32:18;;;;;;;0.13;0.05;;;21.30;69.60;;;;;;5114463;28;20091;-73
2022/09/09 12:34:54;;;;;;;2.75;1.33;;;20.90;72.30;;;;;;5093358;28;20036;-73
2022/09/09 12:37:33;;;;;;;0.10;0.10;;;20.70;71.40;;;;;;5114442;28;20015;-73
2022/09/09 12:40:16;;;;;;;0.20;0.10;;;20.40;72.30;;;;;;5114281;28;20032;-74
2022/09/09 12:42:41;;;;;;;0.00;0.00;;;20.50;73.50;;;;;;5114168;28;20032;-74
2022/09/09 12:45:20;;;;;;;0.10;0.10;;;20.40;70.70;;;;;;5113997;28;20077;-74
2022/09/09 12:47:55;;;;;;;3.65;0.15;;;20.40;73.20;;;;;;5096008;28;20090;-73
2022/09/09 12:50:25;;;;;;;0.32;0.10;;;20.30;72.50;;;;;;5115578;28;20468;-74
2022/09/09 12:52:53;;;;;;;0.00;0.00;;;20.60;73.20;;;;;;5114575;28;20532;-73
2022/09/09 12:55:25;;;;;;;2.20;0.43;;;20.50;71.00;;;;;;5114125;28;20043;-72
2022/09/09 12:57:51;;;;;;;0.20;0.20;;;20.30;72.90;;;;;;5113971;28;20540;-73
2022/09/09 13:00:23;;;;;;;0.43;0.43;;;20.40;74.30;;;;;;5095812;28;20058;-73
2022/09/09 13:02:54;;;;;;;0.00;0.00;;;20.40;73.60;;;;;;5113829;28;20049;-74
2022/09/09 13:05:25;;;;;;;1.27;0.10;;;20.50;73.70;;;;;;5114077;28;20032;-73
2022/09/09 13:07:51;;;;;;;0.05;0.05;;;20.90;72.90;;;;;;5095597;28;20035;-74
2022/09/09 13:10:28;;;;;;;0.25;0.17;;;21.40;68.90;;;;;;5113858;28;20066;-73
2022/09/09 13:12:54;;;;;;;0.00;0.00;;;22.30;67.80;;;;;;5113607;28;20020;-74
2022/09/09 13:15:27;;;;;;;0.05;0.05;;;23.10;68.30;;;;;;5113723;28;20028;-74